Latest Weather Observations for Carnarvon

IDW60801

Issued at 11:05 am WST Saturday 22 November 2014 (issued every 30 minutes, with the page automatically refreshed every 10 minutes)

About weather observations | Map of weather stations | Latest weather observations for WA | Other Formats
Station Details ID: 006011 Name: CARNARVON AIRPORT Lat: -24.89 Lon: 113.67 Height: 4.0 m
Data from the previous 72 hours. | See also: Recent months at Carnarvon
Date/Time
WST
Temp
°C
App
Temp
°C
Dew
Point
Rel
Hum
%
Delta-T
°C
Wind Press
QNH
hPa
Press
MSL
hPa
Rain
since 9 am
mm
Dir
 
Spd
km/h
Gust
km/h
Spd
kts
Gust
kts
22/11:00am 24.6 21.0 14.3 52 6.1 S 26 32 14 17 1014.8 - 0.0
22/10:30am 25.7 22.2 14.5 50 6.7 SSW 26 35 14 19 1014.9 - 0.0
22/10:00am 24.1 20.9 14.3 54 5.8 S 24 32 13 17 1015.1 - 0.0
22/09:30am 24.1 20.7 14.7 55 5.6 S 26 33 14 18 1015.3 - 0.0
22/09:00am 23.5 20.0 14.5 57 5.3 SSE 26 33 14 18 1015.2 1015.2 0.0
22/08:30am 24.2 21.0 15.4 58 5.3 SSE 26 32 14 17 1015.0 - 0.0
22/08:00am 22.8 20.0 15.4 63 4.4 SSE 24 32 13 17 1014.8 - 0.0
22/07:30am 22.2 19.5 15.7 66 3.9 SSE 24 30 13 16 1014.6 - 0.0
22/07:00am 21.5 19.8 15.8 70 3.4 SSE 19 28 10 15 1014.3 - 0.0
22/06:30am 21.0 19.0 16.4 75 2.8 S 22 26 12 14 1014.0 - 0.0
22/06:00am 20.4 17.8 15.9 75 2.7 S 24 32 13 17 1013.5 1013.5 0.0
22/05:30am 20.4 17.6 16.4 78 2.4 S 26 32 14 17 1013.2 - 0.0
22/05:00am 20.5 18.5 16.5 78 2.4 S 22 30 12 16 1013.0 - 0.0
22/04:30am 20.0 18.4 16.5 80 2.1 S 20 24 11 13 1012.8 - 0.0
22/04:00am 20.2 18.6 16.4 79 2.3 S 20 28 11 15 1012.6 - 0.0
22/03:30am 20.3 18.2 16.1 77 2.5 S 22 32 12 17 1012.5 - 0.0
22/03:00am 20.4 17.6 16.4 78 2.4 S 26 35 14 19 1012.4 1012.4 0.0
22/02:30am 20.5 17.3 16.3 77 2.5 S 28 35 15 19 1012.5 - 0.0
22/02:00am 20.6 18.3 16.6 78 2.4 S 24 32 13 17 1012.7 - 0.0
22/01:30am 21.1 18.2 17.0 77 2.5 S 28 39 15 21 1012.9 - 0.0
22/01:00am 21.0 18.1 16.2 74 2.9 S 26 32 14 17 1013.0 - 0.0
22/12:30am 21.3 17.6 16.1 72 3.1 S 30 41 16 22 1013.3 - 0.0
22/12:00am 21.1 17.3 15.7 71 3.2 S 30 37 16 20 1013.4 1013.4 0.0
 
Date/Time
WST
Temp
°C
App
Temp
°C
Dew
Point
Rel
Hum
%
Delta-T
°C
Wind Press
QNH
hPa
Press
MSL
hPa
Rain
since 9 am
mm
Dir
 
Spd
km/h
Gust
km/h
Spd
kts
Gust
kts
21/11:30pm 21.4 17.7 16.1 72 3.2 S 30 41 16 22 1013.7 - 0.0
21/11:00pm 21.4 17.2 15.7 70 3.4 S 32 41 17 22 1013.9 - 0.0
21/10:30pm 21.3 17.1 16.3 73 3.0 S 33 39 18 21 1014.1 - 0.0
21/10:00pm 21.4 17.9 16.6 74 2.9 S 30 39 16 21 1014.2 - 0.0
21/09:30pm 21.3 17.3 16.1 72 3.1 S 32 43 17 23 1014.0 - 0.0
21/09:00pm 21.3 16.7 16.0 72 3.2 S 35 44 19 24 1013.8 1013.8 0.0
21/08:30pm 21.5 16.7 15.6 69 3.5 S 35 44 19 24 1013.5 - 0.0
21/08:00pm 21.7 16.9 15.5 68 3.7 S 35 43 19 23 1013.5 - 0.0
21/07:30pm 21.8 17.2 14.7 64 4.2 SSW 32 44 17 24 1013.3 - 0.0
21/07:00pm 22.1 18.3 14.6 62 4.4 SSW 28 39 15 21 1013.1 - 0.0
21/06:30pm 22.6 17.5 13.8 57 5.1 SSW 33 43 18 23 1012.7 - 0.0
21/06:00pm 23.3 18.5 13.9 55 5.5 SSW 32 41 17 22 1012.4 1012.4 0.0
21/05:30pm 23.9 19.8 14.8 56 5.4 SSW 30 35 16 19 1012.4 - 0.0
21/05:00pm 23.8 19.5 14.3 55 5.6 SW 30 39 16 21 1012.4 - 0.0
21/04:30pm 24.6 20.7 14.3 52 6.1 SW 28 35 15 19 1012.6 - 0.0
21/04:00pm 24.6 20.7 14.3 52 6.1 SW 28 35 15 19 1012.7 - 0.0
21/03:30pm 24.7 20.2 12.7 47 6.9 SW 28 33 15 18 1012.8 - 0.0
21/03:00pm 24.8 20.5 12.0 44 7.3 SW 26 35 14 19 1012.9 1012.9 0.0
21/02:30pm 25.2 21.2 13.0 46 7.1 SSW 26 32 14 17 1013.2 - 0.0
21/02:00pm 24.9 20.5 13.0 47 6.9 SSW 28 35 15 19 1013.4 - 0.0
21/01:30pm 24.6 21.1 14.5 53 6.0 SSW 26 33 14 18 1013.8 - 0.0
21/01:00pm 24.7 21.0 15.0 54 5.8 SSW 28 39 15 21 1014.1 - 0.0
21/12:30pm 24.9 20.7 14.7 53 6.1 SSW 30 37 16 20 1014.2 - 0.0
21/12:00pm 24.5 19.9 14.6 54 5.9 SSW 32 37 17 20 1014.4 1014.4 0.0
21/11:30am 24.4 20.1 14.4 53 5.9 SSW 30 35 16 19 1014.7 - 0.0
21/11:00am 23.9 19.5 14.2 54 5.7 S 30 39 16 21 1015.1 - 0.0
21/10:30am 24.3 20.4 14.5 54 5.8 SSW 28 35 15 19 1015.3 - 0.0
21/10:00am 24.8 20.3 12.6 46 7.0 S 28 33 15 18 1015.6 - 0.0
21/09:30am 23.8 20.2 13.1 51 6.2 S 24 30 13 16 1015.7 - 0.0
21/09:00am 23.5 20.5 12.7 50 6.2 SSE 20 32 11 17 1015.7 1015.7 0.0
21/08:30am 22.4 19.9 14.2 59 4.8 SSE 20 30 11 16 1015.5 - 0.0
21/08:00am 22.0 20.1 14.1 61 4.6 SSE 17 26 9 14 1015.5 - 0.0
21/07:30am 21.8 19.4 13.9 61 4.6 ESE 19 24 10 13 1015.5 - 0.0
21/07:00am 21.2 19.8 14.5 65 3.9 SSE 15 20 8 11 1015.1 - 0.0
21/06:30am 18.6 17.8 13.9 74 2.7 SE 11 15 6 8 1014.8 - 0.0
21/06:00am 19.2 17.4 14.4 74 2.8 S 17 20 9 11 1014.5 1014.5 0.0
21/05:30am 18.9 17.1 14.4 75 2.6 S 17 20 9 11 1014.1 - 0.0
21/05:00am 19.1 16.9 14.4 74 2.7 S 19 20 10 11 1013.8 - 0.0
21/04:30am 19.0 17.1 14.3 74 2.7 S 17 20 9 11 1013.6 - 0.0
21/04:00am 19.0 17.0 13.9 72 2.9 S 17 22 9 12 1013.6 - 0.0
21/03:30am 19.4 17.1 14.2 72 3.0 S 19 22 10 12 1013.4 - 0.0
21/03:00am 19.6 17.9 14.6 73 2.9 S 17 24 9 13 1013.4 1013.4 0.0
21/02:30am 20.0 17.3 14.5 70 3.2 S 22 28 12 15 1013.3 - 0.0
21/02:00am 20.2 17.1 14.5 69 3.3 S 24 33 13 18 1013.4 - 0.0
21/01:30am 20.4 17.4 14.8 70 3.3 S 24 35 13 19 1013.6 - 0.0
21/01:00am 20.6 16.9 15.0 70 3.3 S 28 37 15 20 1013.8 - 0.0
21/12:30am 20.8 17.0 14.8 68 3.5 S 28 39 15 21 1014.1 - 0.0
21/12:00am 20.8 17.0 14.8 68 3.5 S 28 35 15 19 1014.4 1014.4 0.0
 
Date/Time
WST
Temp
°C
App
Temp
°C
Dew
Point
Rel
Hum
%
Delta-T
°C
Wind Press
QNH
hPa
Press
MSL
hPa
Rain
since 9 am
mm
Dir
 
Spd
km/h
Gust
km/h
Spd
kts
Gust
kts
20/11:30pm 21.0 18.2 15.4 70 3.3 S 24 33 13 18 1014.7 - 0.0
20/11:00pm 21.1 17.5 15.2 69 3.5 S 28 37 15 20 1014.7 - 0.0
20/10:30pm 21.2 16.7 14.9 67 3.7 S 32 37 17 20 1014.8 - 0.0
20/10:00pm 21.4 17.1 15.5 69 3.5 S 32 43 17 23 1014.8 - 0.0
20/09:30pm 21.4 16.8 15.1 67 3.7 S 33 41 18 22 1014.7 - 0.0
20/09:00pm 21.6 17.3 15.4 68 3.7 S 32 39 17 21 1014.6 1014.6 0.0
20/08:30pm 21.6 16.7 15.2 67 3.8 S 35 43 19 23 1014.5 - 0.0
20/08:00pm 21.6 17.0 14.6 64 4.1 SSW 32 41 17 22 1014.2 - 0.0
20/07:30pm 21.7 17.5 14.7 64 4.1 SSW 30 39 16 21 1013.8 - 0.0
20/07:00pm 21.9 17.1 14.0 61 4.6 SSW 32 39 17 21 1013.7 - 0.0
20/06:30pm 22.5 18.5 14.1 59 4.9 SSW 28 39 15 21 1013.5 - 0.0
20/06:00pm 23.0 19.5 14.5 58 5.0 SW 26 35 14 19 1013.4 1013.4 0.0
20/05:30pm 23.4 18.9 14.8 58 5.1 SSW 32 37 17 20 1013.3 - 0.0
20/05:00pm 24.2 20.5 15.0 56 5.5 SSW 28 39 15 21 1013.2 - 0.0
20/04:30pm 24.2 20.0 14.6 55 5.7 SSW 30 39 16 21 1013.3 - 0.0
20/04:00pm 24.5 21.4 15.6 57 5.4 SW 26 35 14 19 1013.5 - 0.0
20/03:30pm 24.4 20.9 15.6 58 5.3 SW 28 35 15 19 1013.7 - 0.0
20/03:00pm 24.7 21.2 15.4 56 5.6 SW 28 35 15 19 1013.8 1013.8 0.0
20/02:30pm 24.4 20.6 14.8 55 5.7 SW 28 35 15 19 1014.0 - 0.0
20/02:00pm 24.8 20.9 14.3 52 6.2 SW 28 35 15 19 1014.2 - 0.0
20/01:30pm 25.0 21.0 14.0 50 6.5 SW 28 35 15 19 1014.3 - 0.0
20/01:00pm 24.7 20.2 12.7 47 6.9 SW 28 35 15 19 1014.6 - 0.0
20/12:30pm 25.3 20.5 12.9 46 7.2 SW 30 37 16 20 1014.8 - 0.0
20/12:00pm 24.6 20.5 12.6 47 6.9 SSW 26 35 14 19 1015.2 1015.2 0.0
20/11:30am 24.2 19.7 12.7 48 6.6 SSW 28 37 15 20 1015.6 - 0.0
20/11:00am 24.3 20.4 13.3 50 6.4 SSW 26 32 14 17 1015.6 - 0.0
20/10:30am 24.2 20.6 12.9 49 6.5 SSW 24 32 13 17 1015.9 - 0.0
20/10:00am 23.8 20.5 13.9 54 5.8 SSW 24 30 13 16 1015.9 - 0.0
20/09:30am 23.3 20.5 14.3 57 5.3 SSW 22 30 12 16 1016.2 - 0.0
20/09:00am 22.7 20.2 14.1 58 5.0 SSW 20 28 11 15 1016.3 1016.3 0.0
20/08:30am 22.0 20.1 14.1 61 4.6 SSW 17 24 9 13 1016.3 - 0.0
20/08:00am 22.1 20.9 14.0 60 4.7 S 13 19 7 10 1016.2 - 0.0
20/07:30am 21.8 19.9 14.3 62 4.4 SSE 17 20 9 11 1016.0 - 0.0
20/07:00am 21.0 20.4 14.5 66 3.8 SE 11 15 6 8 1016.0 - 0.0
20/06:30am 20.2 20.1 14.9 71 3.1 SE 9 13 5 7 1015.8 - 0.0
20/06:00am 19.6 18.7 14.8 74 2.8 SE 13 19 7 10 1015.5 1015.5 0.0
20/05:30am 19.3 17.6 14.7 74 2.7 S 17 22 9 12 1015.0 - 0.0
20/05:00am 19.3 17.4 14.1 72 3.0 S 17 24 9 13 1014.9 - 0.0
20/04:30am 19.2 17.5 13.6 70 3.2 S 15 19 8 10 1014.9 - 0.0
20/04:00am 19.1 17.1 13.9 72 3.0 S 17 22 9 12 1014.7 - 0.0
20/03:30am 19.3 17.3 13.9 71 3.1 S 17 22 9 12 1014.8 - 0.0
20/03:00am 19.3 17.8 14.1 72 3.0 SSE 15 20 8 11 1014.7 1014.7 0.0
20/02:30am 19.7 17.9 14.5 72 3.0 S 17 22 9 12 1014.7 - 0.0
20/02:00am 19.9 17.6 14.6 71 3.1 S 20 32 11 17 1014.7 - 0.0
20/01:30am 20.2 17.2 14.9 71 3.1 S 24 33 13 18 1014.9 - 0.0
20/01:00am 20.2 17.0 14.3 69 3.4 S 24 28 13 15 1015.1 - 0.0
20/12:30am 20.2 17.8 14.5 69 3.3 S 20 30 11 16 1015.4 - 0.0
20/12:00am 20.4 17.2 14.2 67 3.6 S 24 30 13 16 1015.7 1015.7 0.0
 
Date/Time
WST
Temp
°C
App
Temp
°C
Dew
Point
Rel
Hum
%
Delta-T
°C
Wind Press
QNH
hPa
Press
MSL
hPa
Rain
since 9 am
mm
Dir
 
Spd
km/h
Gust
km/h
Spd
kts
Gust
kts
19/11:30pm 20.5 17.0 13.5 64 4.0 S 24 30 13 16 1015.9 - 0.0
19/11:00pm 20.7 17.9 14.3 66 3.7 SSW 22 28 12 15 1016.2 - 0.0
19/10:30pm 21.0 17.6 13.7 63 4.2 S 24 33 13 18 1016.5 - 0.0
19/10:00pm 21.3 17.4 13.3 60 4.6 SSW 26 33 14 18 1016.5 - 0.0
19/09:30pm 21.5 17.7 13.5 60 4.6 S 26 33 14 18 1016.5 - 0.0
19/09:00pm 21.8 18.0 13.7 60 4.7 SSW 26 35 14 19 1016.3 1016.3 0.0
19/08:30pm 21.8 19.5 15.8 68 3.6 SSW 22 32 12 17 1016.1 - 0.0
19/08:00pm 21.7 19.8 15.7 68 3.6 SW 20 28 11 15 1016.0 - 0.0
19/07:30pm 21.7 19.9 15.5 68 3.7 SW 19 26 10 14 1015.7 - 0.0
19/07:00pm 21.9 19.9 15.5 67 3.8 SW 20 26 11 14 1015.5 - 0.0
19/06:30pm 22.5 20.9 16.0 66 3.9 SW 19 26 10 14 1015.2 - 0.0
19/06:00pm 23.1 20.9 14.8 59 4.9 SW 20 28 11 15 1015.1 1015.1 0.0
19/05:30pm 23.5 20.8 15.5 60 4.8 SW 24 28 13 15 1014.9 - 0.0
19/05:00pm 24.3 21.8 16.1 60 5.0 SW 24 30 13 16 1014.8 - 0.0
19/04:30pm 24.1 21.0 14.5 55 5.7 SSW 24 32 13 17 1014.9 - 0.0
19/04:00pm 24.4 21.3 14.6 54 5.8 SW 24 32 13 17 1014.9 - 0.0
19/03:30pm 24.6 21.4 14.3 52 6.1 SW 24 33 13 18 1015.0 - 0.0
19/03:00pm 25.1 21.9 14.3 51 6.4 SW 24 30 13 16 1015.1 1015.1 0.0
19/02:30pm 25.4 22.1 14.1 49 6.7 SW 24 35 13 19 1015.3 - 0.0
19/02:00pm 24.0 20.3 13.9 53 5.9 WSW 26 33 14 18 1015.4 - 0.0
19/01:30pm 24.6 21.6 13.7 50 6.4 SW 22 30 12 16 1015.7 - 0.0
19/01:00pm 24.2 21.7 14.2 53 5.9 WSW 20 28 11 15 1016.0 - 0.0
19/12:30pm 24.0 21.6 13.9 53 5.9 SW 19 30 10 16 1016.5 - 0.0
19/12:00pm 24.1 21.0 13.4 51 6.2 S 22 28 12 15 1016.7 1016.7 0.0
19/11:30am 24.1 21.7 13.8 52 6.0 SSW 19 24 10 13 1017.0 - 0.0

Other Formats:

Comma delimited format used in spreadsheet applications
http://www.bom.gov.au/fwo/IDW60801/IDW60801.94300.axf

JavaScript Object Notation format (JSON) in row-major order
http://www.bom.gov.au/fwo/IDW60801/IDW60801.94300.json